Terminal Aerodrome Forecast
Issued by NWS

Current Version | Previous Version | Graphics & Text | Print | Product List | Glossary On
Versions: 1 2 3 4 5 6 7 8 9 10 11 12 13 14 15 16 17 18 19 20 21 22 23 24 25 26 27 28
511
FTUS41 KILN 161135
TAFLUK
TAF
KLUK 161135Z 1612/1712 04004KT 5SM BR OVC009
     FM161500 12005KT 6SM BR OVC012
     FM161800 14007KT P6SM OVC018
     FM162200 14005KT 4SM BR VCSH OVC010
     FM170600 20005KT 3SM BR VCSH OVC007=

USA.gov is the U.S. government's official web portal to all federal, state and local government web resources and services.